createdAt,value
2023-05-05T00:00:23.959Z,29.03
2023-05-05T00:01:23.914Z,29.55
2023-05-05T00:02:23.962Z,25.07
2023-05-05T00:03:24.077Z,28.01
2023-05-05T00:04:24.007Z,29.77
2023-05-05T00:05:24.738Z,30.58
2023-05-05T00:06:23.955Z,30.72
2023-05-05T00:07:23.977Z,31.75
2023-05-05T00:08:23.977Z,29.22
2023-05-05T00:09:24.015Z,28.86
2023-05-05T00:10:23.990Z,30.00
2023-05-05T00:11:24.000Z,32.97
2023-05-05T00:12:24.003Z,32.04
2023-05-05T00:13:24.055Z,31.45
2023-05-05T00:14:24.051Z,31.55
2023-05-05T00:15:24.058Z,29.59
2023-05-05T00:16:24.122Z,31.99
2023-05-05T00:17:24.110Z,28.10
2023-05-05T00:18:24.106Z,27.57
2023-05-05T00:19:24.078Z,27.66
2023-05-05T00:20:24.099Z,26.16
2023-05-05T00:21:24.147Z,30.33
2023-05-05T00:22:24.152Z,34.86
2023-05-05T00:23:24.149Z,29.42
2023-05-05T00:24:24.166Z,26.93
2023-05-05T00:25:24.146Z,28.31
2023-05-05T00:26:24.190Z,26.22
2023-05-05T00:27:24.222Z,26.00
2023-05-05T00:28:24.228Z,29.40
2023-05-05T00:29:24.224Z,26.14
2023-05-05T00:30:24.234Z,28.40
2023-05-05T00:31:24.267Z,29.25
2023-05-05T00:32:24.280Z,28.71
2023-05-05T00:33:24.285Z,29.53
2023-05-05T00:34:24.292Z,32.67
2023-05-05T00:35:24.315Z,29.69
2023-05-05T00:36:24.330Z,29.78
2023-05-05T00:37:24.372Z,33.59
2023-05-05T00:38:24.350Z,28.58
2023-05-05T00:39:24.359Z,29.38
2023-05-05T00:40:24.377Z,27.68
2023-05-05T00:41:24.395Z,28.20
2023-05-05T00:42:24.791Z,27.31
2023-05-05T00:43:24.403Z,30.17
2023-05-05T00:44:24.389Z,26.48
2023-05-05T00:45:24.390Z,26.38
2023-05-05T00:46:24.479Z,31.22
2023-05-05T00:47:24.410Z,29.36
2023-05-05T00:48:24.460Z,27.67
2023-05-05T00:49:24.542Z,28.16
2023-05-05T00:50:24.462Z,32.44
2023-05-05T00:51:24.464Z,27.74
2023-05-05T00:52:24.526Z,31.04
2023-05-05T00:53:24.516Z,31.88
2023-05-05T00:54:24.548Z,32.28
2023-05-05T00:55:24.561Z,29.34
2023-05-05T00:56:24.576Z,29.32
2023-05-05T00:57:24.580Z,27.23
2023-05-05T00:58:24.558Z,29.09
2023-05-05T00:59:24.601Z,32.18
2023-05-05T01:00:24.612Z,29.20
2023-05-05T01:01:24.667Z,27.55
2023-05-05T01:02:24.789Z,29.90
2023-05-05T01:03:24.918Z,30.08
2023-05-05T01:04:24.677Z,28.51
2023-05-05T01:05:24.701Z,28.34
2023-05-05T01:06:24.731Z,28.76
2023-05-05T01:07:24.702Z,25.00
2023-05-05T01:08:24.752Z,28.68
2023-05-05T01:09:24.753Z,29.14
2023-05-05T01:10:25.091Z,29.18
2023-05-05T01:11:24.803Z,26.67
2023-05-05T01:12:24.813Z,26.28
2023-05-05T01:13:24.832Z,29.41
2023-05-05T01:14:24.816Z,32.38
2023-05-05T01:15:24.874Z,31.01
2023-05-05T01:16:25.847Z,29.42
2023-05-05T01:17:24.941Z,28.84
2023-05-05T01:18:24.922Z,29.37
2023-05-05T01:19:24.931Z,32.39
2023-05-05T01:20:24.979Z,29.18
2023-05-05T01:21:24.962Z,29.03
2023-05-05T01:22:24.961Z,30.26
2023-05-05T01:23:25.004Z,32.28
2023-05-05T01:24:25.032Z,29.97
2023-05-05T01:25:25.076Z,29.73
2023-05-05T01:26:25.042Z,31.56
2023-05-05T01:27:25.081Z,25.48
2023-05-05T01:28:25.096Z,27.34
2023-05-05T01:29:25.124Z,29.85
2023-05-05T01:30:25.145Z,30.93
2023-05-05T01:31:25.156Z,29.22
2023-05-05T01:32:25.218Z,29.03
2023-05-05T01:33:25.177Z,26.08
2023-05-05T01:34:25.226Z,30.02
2023-05-05T01:35:25.246Z,28.88
2023-05-05T01:36:25.261Z,27.82
2023-05-05T01:37:25.264Z,27.23
2023-05-05T01:38:25.300Z,26.39
2023-05-05T01:39:25.346Z,25.97
2023-05-05T01:40:25.347Z,27.92
2023-05-05T01:41:25.359Z,29.35
2023-05-05T01:42:25.389Z,27.90
2023-05-05T01:43:25.396Z,27.30
2023-05-05T01:44:25.404Z,28.26
2023-05-05T01:45:25.413Z,25.90
2023-05-05T01:46:25.477Z,29.78
2023-05-05T01:47:25.554Z,26.36
2023-05-05T01:48:25.485Z,26.98
2023-05-05T01:49:25.528Z,27.50
2023-05-05T01:50:25.557Z,29.20
2023-05-05T01:51:25.598Z,30.77
2023-05-05T01:52:25.592Z,25.69
2023-05-05T01:53:25.614Z,28.32
2023-05-05T01:54:25.625Z,29.17
2023-05-05T01:55:25.691Z,28.63
2023-05-05T01:56:25.744Z,27.28
2023-05-05T01:57:25.744Z,27.32
2023-05-05T01:58:25.782Z,27.55
2023-05-05T01:59:25.763Z,27.44
2023-05-05T02:00:25.798Z,27.39
2023-05-05T02:01:25.871Z,29.41
2023-05-05T02:02:26.368Z,26.54
2023-05-05T02:03:25.893Z,28.99
2023-05-05T02:04:25.904Z,28.24
2023-05-05T02:05:25.889Z,28.47
2023-05-05T02:06:25.922Z,27.42
2023-05-05T02:07:25.944Z,27.18
2023-05-05T02:08:26.323Z,30.49
2023-05-05T02:09:26.028Z,27.67
2023-05-05T02:10:26.051Z,30.76
2023-05-05T02:11:26.062Z,28.29
2023-05-05T02:12:26.094Z,27.83
2023-05-05T02:13:26.232Z,28.23
2023-05-05T02:14:26.161Z,31.05
2023-05-05T02:15:26.208Z,30.41
2023-05-05T02:16:26.220Z,30.08
2023-05-05T02:17:26.294Z,28.94
2023-05-05T02:18:26.262Z,28.22
2023-05-05T02:19:26.312Z,30.81
2023-05-05T02:20:26.360Z,27.64
2023-05-05T02:21:26.348Z,27.28
2023-05-05T02:22:26.399Z,29.60
2023-05-05T02:23:26.486Z,27.55
2023-05-05T02:24:26.473Z,29.47
2023-05-05T02:25:26.462Z,27.74
2023-05-05T02:26:27.304Z,28.94
2023-05-05T02:27:26.523Z,30.53
2023-05-05T02:28:26.802Z,26.62
2023-05-05T02:29:26.593Z,28.77
2023-05-05T02:30:26.661Z,30.86
2023-05-05T02:31:26.698Z,28.02
2023-05-05T02:32:26.739Z,27.46
2023-05-05T02:33:26.784Z,28.82
2023-05-05T02:34:26.798Z,31.23
2023-05-05T02:35:26.812Z,29.68
2023-05-05T02:36:26.852Z,26.87
2023-05-05T02:37:26.911Z,28.52
2023-05-05T02:38:27.281Z,28.47
2023-05-05T02:39:26.961Z,31.04
2023-05-05T02:40:27.007Z,30.66
2023-05-05T02:41:27.045Z,28.57
2023-05-05T02:42:27.093Z,26.52
2023-05-05T02:43:27.126Z,29.71
2023-05-05T02:44:27.128Z,26.59
2023-05-05T02:45:27.166Z,32.55
2023-05-05T02:46:27.272Z,27.83
2023-05-05T02:47:27.278Z,28.18
2023-05-05T02:48:27.307Z,27.58
2023-05-05T02:49:27.299Z,29.58
2023-05-05T02:50:27.317Z,27.08
2023-05-05T02:51:27.342Z,28.48
2023-05-05T02:52:27.399Z,27.50
2023-05-05T02:53:27.441Z,28.35
2023-05-05T02:54:27.482Z,30.38
2023-05-05T02:55:27.502Z,35.55
2023-05-05T02:56:27.518Z,29.98
2023-05-05T02:57:27.524Z,28.03
2023-05-05T02:58:27.604Z,31.88
2023-05-05T02:59:27.606Z,29.88
2023-05-05T03:00:27.645Z,28.90
2023-05-05T03:01:27.761Z,27.88
2023-05-05T03:02:27.778Z,28.34
2023-05-05T03:03:27.869Z,26.90
2023-05-05T03:04:27.791Z,27.60
2023-05-05T03:05:27.836Z,27.82
2023-05-05T03:06:27.839Z,26.02
2023-05-05T03:07:27.872Z,27.60
2023-05-05T03:08:27.923Z,29.92
2023-05-05T03:09:27.940Z,28.37
2023-05-05T03:10:27.996Z,25.89
2023-05-05T03:11:28.007Z,30.48
2023-05-05T03:12:28.047Z,29.54
2023-05-05T03:13:28.093Z,26.10
2023-05-05T03:14:28.150Z,27.73
2023-05-05T03:15:28.169Z,28.02
2023-05-05T03:16:28.221Z,28.22
2023-05-05T03:17:28.284Z,28.06
2023-05-05T03:18:28.285Z,27.77
2023-05-05T03:19:28.325Z,27.62
2023-05-05T03:20:28.338Z,27.72
2023-05-05T03:21:28.388Z,25.52
2023-05-05T03:22:28.428Z,25.00
2023-05-05T03:23:28.501Z,26.16
2023-05-05T03:24:28.537Z,25.32
2023-05-05T03:25:28.552Z,28.29
2023-05-05T03:26:28.538Z,26.91
2023-05-05T03:27:28.579Z,29.89
2023-05-05T03:28:28.641Z,27.68
2023-05-05T03:29:28.668Z,31.44
2023-05-05T03:30:28.754Z,32.00
2023-05-05T03:31:28.797Z,31.49
2023-05-05T03:32:28.819Z,31.85
2023-05-05T03:33:28.826Z,27.31
2023-05-05T03:34:28.891Z,28.76
2023-05-05T03:35:28.934Z,32.78
2023-05-05T03:36:29.523Z,28.40
2023-05-05T03:37:28.974Z,31.96
2023-05-05T03:38:28.995Z,33.14
2023-05-05T03:39:29.035Z,32.08
2023-05-05T03:40:40.335Z,32.14
2023-05-05T03:41:30.073Z,32.26
2023-05-05T03:42:29.088Z,32.30
2023-05-05T03:43:29.080Z,32.61
2023-05-05T03:44:29.076Z,32.30
2023-05-05T03:45:29.096Z,27.93
2023-05-05T03:46:29.076Z,32.10
2023-05-05T03:47:29.097Z,26.04
2023-05-05T03:48:29.039Z,29.13
2023-05-05T03:49:29.025Z,25.83
2023-05-05T03:50:29.030Z,29.06
2023-05-05T03:51:29.008Z,30.83
2023-05-05T03:52:29.036Z,30.12
2023-05-05T03:53:29.078Z,28.23
2023-05-05T03:54:29.084Z,28.45
2023-05-05T03:55:29.132Z,29.28
2023-05-05T03:56:29.213Z,28.75
2023-05-05T03:57:29.218Z,29.83
2023-05-05T03:58:29.258Z,29.04
2023-05-05T03:59:29.342Z,29.14
2023-05-05T04:00:29.393Z,32.43
2023-05-05T04:01:29.408Z,29.37
2023-05-05T04:02:29.510Z,29.38
2023-05-05T04:03:29.537Z,28.49
2023-05-05T04:04:29.597Z,28.83
2023-05-05T04:05:29.577Z,27.18
2023-05-05T04:06:29.606Z,28.94
2023-05-05T04:07:29.621Z,30.31
2023-05-05T04:08:29.829Z,28.56
2023-05-05T04:09:29.754Z,28.28
2023-05-05T04:10:29.744Z,26.50
2023-05-05T04:11:29.802Z,29.86
2023-05-05T04:12:29.903Z,26.27
2023-05-05T04:13:29.903Z,27.43
2023-05-05T04:14:29.929Z,29.21
2023-05-05T04:15:29.953Z,29.00
2023-05-05T04:16:30.091Z,28.10
2023-05-05T04:17:30.021Z,31.51
2023-05-05T04:18:30.048Z,29.49
2023-05-05T04:19:30.081Z,29.58
2023-05-05T04:20:30.126Z,29.81
2023-05-05T04:21:30.174Z,27.15
2023-05-05T04:22:30.251Z,29.20
2023-05-05T04:23:30.233Z,27.21
2023-05-05T04:24:30.296Z,30.03
2023-05-05T04:25:30.345Z,26.84
2023-05-05T04:26:30.404Z,27.66
2023-05-05T04:27:31.346Z,29.52
2023-05-05T04:28:30.504Z,27.50
2023-05-05T04:29:30.529Z,30.53
2023-05-05T04:30:30.610Z,29.26
2023-05-05T04:31:30.673Z,28.71
2023-05-05T04:32:30.642Z,30.12
2023-05-05T04:33:30.708Z,28.90
2023-05-05T04:34:30.729Z,29.10
2023-05-05T04:35:30.770Z,30.46
2023-05-05T04:36:30.845Z,25.03
2023-05-05T04:37:30.865Z,29.38
2023-05-05T04:38:30.970Z,28.52
2023-05-05T04:39:30.974Z,27.67
2023-05-05T04:40:31.016Z,27.19
2023-05-05T04:41:31.063Z,26.56
2023-05-05T04:42:31.113Z,27.39
2023-05-05T04:43:31.140Z,31.63
2023-05-05T04:44:31.192Z,30.60
2023-05-05T04:45:31.221Z,32.24
2023-05-05T04:46:31.351Z,29.60
2023-05-05T04:47:31.361Z,31.95
2023-05-05T04:48:31.348Z,27.32
2023-05-05T04:49:31.391Z,26.75
2023-05-05T04:50:31.471Z,27.31
2023-05-05T04:51:31.497Z,31.30
2023-05-05T04:52:31.519Z,27.18
2023-05-05T04:53:31.593Z,28.61
2023-05-05T04:54:31.615Z,30.18
2023-05-05T04:55:31.673Z,27.52
2023-05-05T04:56:31.740Z,29.05
2023-05-05T04:57:31.752Z,27.45
2023-05-05T04:58:31.813Z,33.38
2023-05-05T04:59:31.848Z,27.07
2023-05-05T05:00:31.867Z,29.58
2023-05-05T05:01:31.938Z,31.35
2023-05-05T05:02:32.087Z,29.84
2023-05-05T05:03:32.502Z,27.73
2023-05-05T05:04:32.070Z,26.77
2023-05-05T05:05:32.133Z,26.69
2023-05-05T05:06:32.155Z,28.18
2023-05-05T05:07:32.210Z,28.80
2023-05-05T05:08:32.240Z,31.08
2023-05-05T05:09:32.292Z,28.58
2023-05-05T05:10:32.323Z,28.53
2023-05-05T05:11:32.405Z,28.89
2023-05-05T05:12:32.491Z,28.97
2023-05-05T05:13:32.490Z,29.24
2023-05-05T05:14:32.516Z,25.88
2023-05-05T05:15:32.567Z,28.60
2023-05-05T05:16:32.655Z,29.44
2023-05-05T05:17:32.654Z,29.58
2023-05-05T05:18:32.726Z,30.70
2023-05-05T05:19:32.713Z,28.11
2023-05-05T05:20:32.806Z,30.60
2023-05-05T05:21:32.856Z,29.14
2023-05-05T05:22:33.015Z,27.41
2023-05-05T05:23:33.017Z,26.93
2023-05-05T05:24:33.031Z,28.54
2023-05-05T05:25:33.084Z,27.74
2023-05-05T05:26:33.080Z,27.60
2023-05-05T05:27:33.140Z,32.73
2023-05-05T05:28:33.373Z,27.58
2023-05-05T05:29:33.184Z,27.92
2023-05-05T05:30:33.246Z,26.25
2023-05-05T05:31:33.327Z,29.23
2023-05-05T05:32:33.359Z,27.36
2023-05-05T05:33:33.889Z,28.48
2023-05-05T05:34:33.432Z,31.79
2023-05-05T05:35:33.473Z,27.55
2023-05-05T05:36:33.504Z,30.20
2023-05-05T05:37:33.547Z,26.17
2023-05-05T05:38:33.860Z,32.43
2023-05-05T05:39:33.651Z,29.21
2023-05-05T05:40:33.655Z,28.90
2023-05-05T05:41:33.716Z,26.80
2023-05-05T05:42:33.762Z,29.71
2023-05-05T05:43:33.804Z,27.31
2023-05-05T05:44:33.859Z,27.81
2023-05-05T05:45:33.874Z,27.31
2023-05-05T05:46:34.000Z,27.09
2023-05-05T05:47:33.961Z,29.46
2023-05-05T05:48:34.002Z,28.65
2023-05-05T05:49:34.033Z,30.74
2023-05-05T05:50:34.046Z,28.96
2023-05-05T05:51:34.137Z,29.45
2023-05-05T05:52:34.168Z,27.76
2023-05-05T05:53:34.209Z,27.03
2023-05-05T05:54:34.242Z,28.06
2023-05-05T05:55:34.277Z,27.38
2023-05-05T05:56:34.308Z,26.87
2023-05-05T05:57:34.368Z,28.59
2023-05-05T05:58:34.861Z,33.70
2023-05-05T05:59:34.414Z,28.41
2023-05-05T06:00:34.485Z,25.32
2023-05-05T06:01:34.506Z,26.50
2023-05-05T06:02:34.571Z,30.24
2023-05-05T06:03:34.903Z,30.77
2023-05-05T06:04:34.704Z,43.04
2023-05-05T06:05:34.665Z,38.47
2023-05-05T06:06:34.691Z,36.24
2023-05-05T06:07:34.732Z,40.03
2023-05-05T06:08:34.902Z,39.55
2023-05-05T06:09:34.744Z,38.60
2023-05-05T06:10:35.247Z,29.36
2023-05-05T06:11:34.821Z,30.72
2023-05-05T06:12:34.893Z,30.97
2023-05-05T06:13:34.866Z,39.46
2023-05-05T06:14:34.928Z,37.45
2023-05-05T06:15:34.963Z,34.27
2023-05-05T06:16:34.989Z,35.58
2023-05-05T06:17:34.953Z,40.68
2023-05-05T06:18:35.016Z,41.83
2023-05-05T06:19:35.016Z,45.24
2023-05-05T06:20:35.036Z,52.72
2023-05-05T06:21:35.092Z,56.56
2023-05-05T06:22:35.099Z,54.87
2023-05-05T06:23:35.400Z,51.42
2023-05-05T06:24:35.126Z,49.94
2023-05-05T06:25:35.162Z,56.62
2023-05-05T06:26:35.169Z,56.11
2023-05-05T06:27:35.221Z,51.20
2023-05-05T06:28:35.242Z,52.74
2023-05-05T06:29:35.224Z,53.33
2023-05-05T06:30:35.252Z,55.18
2023-05-05T06:31:35.333Z,54.22
2023-05-05T06:32:35.242Z,53.75
2023-05-05T06:33:35.384Z,59.87
2023-05-05T06:34:35.287Z,63.85
2023-05-05T06:35:35.309Z,70.00
2023-05-05T06:36:35.330Z,68.97
2023-05-05T06:37:35.321Z,63.54
2023-05-05T06:38:35.388Z,63.65
2023-05-05T06:39:35.347Z,57.33
2023-05-05T06:40:35.343Z,64.39
2023-05-05T06:41:35.344Z,57.07
2023-05-05T06:42:35.364Z,65.20
2023-05-05T06:43:35.348Z,65.09
2023-05-05T06:44:35.397Z,61.69
2023-05-05T06:45:35.386Z,64.64
2023-05-05T06:46:35.501Z,65.71
2023-05-05T06:47:35.429Z,64.41
2023-05-05T06:48:35.380Z,67.65
2023-05-05T06:49:35.388Z,68.74
2023-05-05T06:50:35.388Z,69.77
2023-05-05T06:51:35.400Z,63.76
2023-05-05T06:52:35.399Z,67.79
2023-05-05T06:53:35.428Z,69.78
2023-05-05T06:54:35.433Z,69.29
2023-05-05T06:55:35.432Z,77.02
2023-05-05T06:56:35.424Z,69.06
2023-05-05T06:57:35.512Z,71.99
2023-05-05T06:58:35.895Z,73.28
2023-05-05T06:59:35.418Z,75.03
2023-05-05T07:00:35.509Z,73.86
2023-05-05T07:01:36.393Z,72.32
2023-05-05T07:02:35.442Z,79.81
2023-05-05T07:03:35.883Z,78.98
2023-05-05T07:04:35.452Z,84.20
2023-05-05T07:05:35.480Z,76.26
2023-05-05T07:06:35.460Z,81.72
2023-05-05T07:07:35.474Z,77.09
2023-05-05T07:08:35.526Z,85.99
2023-05-05T07:09:35.526Z,92.81
2023-05-05T07:10:35.558Z,92.51
2023-05-05T07:11:35.610Z,90.24
2023-05-05T07:12:35.657Z,86.18
2023-05-05T07:13:36.052Z,79.08
2023-05-05T07:14:35.732Z,76.18
2023-05-05T07:15:35.770Z,85.07
2023-05-05T07:16:35.868Z,79.75
2023-05-05T07:17:35.918Z,74.51
2023-05-05T07:18:35.933Z,82.74
2023-05-05T07:19:35.978Z,83.62
2023-05-05T07:20:36.017Z,85.97
2023-05-05T07:21:36.088Z,84.44
2023-05-05T07:22:36.120Z,83.07
2023-05-05T07:23:36.374Z,88.34
2023-05-05T07:24:36.243Z,89.21
2023-05-05T07:25:36.316Z,88.26
2023-05-05T07:26:36.360Z,95.69
2023-05-05T07:27:36.433Z,110.49
2023-05-05T07:28:36.510Z,104.68
2023-05-05T07:29:36.626Z,100.76
2023-05-05T07:30:36.619Z,106.75
2023-05-05T07:31:36.683Z,105.22
2023-05-05T07:32:36.772Z,97.02
2023-05-05T07:33:36.782Z,106.63
2023-05-05T07:34:36.868Z,100.67
2023-05-05T07:35:36.895Z,105.02
2023-05-05T07:36:36.979Z,101.98
2023-05-05T07:37:37.036Z,99.45
2023-05-05T07:38:37.381Z,99.88
2023-05-05T07:39:37.137Z,114.27
2023-05-05T07:40:37.164Z,127.69
2023-05-05T07:41:37.186Z,121.36
2023-05-05T07:42:37.259Z,120.11
2023-05-05T07:43:39.272Z,124.40
2023-05-05T07:44:37.377Z,121.49
2023-05-05T07:45:37.477Z,121.25
2023-05-05T07:46:37.578Z,130.83
2023-05-05T07:47:37.597Z,152.44
2023-05-05T07:48:37.617Z,164.92
2023-05-05T07:49:37.628Z,159.02
2023-05-05T07:50:37.654Z,146.72
2023-05-05T07:51:37.727Z,156.09
2023-05-05T07:52:46.122Z,155.34
2023-05-05T07:53:38.710Z,155.68
2023-05-05T07:54:37.718Z,157.19
2023-05-05T07:55:37.718Z,156.22
2023-05-05T07:56:37.710Z,163.03
2023-05-05T07:57:37.686Z,173.85
2023-05-05T07:58:37.701Z,174.17
2023-05-05T07:59:37.725Z,175.64
2023-05-05T08:00:37.675Z,179.94
2023-05-05T08:01:37.847Z,182.93
2023-05-05T08:02:37.760Z,184.82
2023-05-05T08:03:37.957Z,185.10
2023-05-05T08:04:37.937Z,182.29
2023-05-05T08:05:37.652Z,182.71
2023-05-05T08:06:37.667Z,184.83
2023-05-05T08:07:37.668Z,192.97
2023-05-05T08:08:37.723Z,190.42
2023-05-05T08:09:37.727Z,191.51
2023-05-05T08:10:37.720Z,194.12
2023-05-05T08:11:37.723Z,192.95
2023-05-05T08:12:37.863Z,191.71
2023-05-05T08:13:37.770Z,198.68
2023-05-05T08:14:37.912Z,199.67
2023-05-05T08:15:37.820Z,197.56
2023-05-05T08:16:37.818Z,202.98
2023-05-05T08:17:37.912Z,206.28
2023-05-05T08:18:37.859Z,199.07
2023-05-05T08:19:37.848Z,185.98
2023-05-05T08:20:37.887Z,184.19
2023-05-05T08:21:37.908Z,180.45
2023-05-05T08:22:37.914Z,174.23
2023-05-05T08:23:37.948Z,175.99
2023-05-05T08:24:38.426Z,168.14
2023-05-05T08:25:38.007Z,167.64
2023-05-05T08:26:38.041Z,169.06
2023-05-05T08:27:38.074Z,167.77
2023-05-05T08:28:38.093Z,172.28
2023-05-05T08:29:38.417Z,170.64
2023-05-05T08:30:38.119Z,162.15
2023-05-05T08:31:38.275Z,161.91
2023-05-05T08:32:38.199Z,162.79
2023-05-05T08:33:38.270Z,159.51
2023-05-05T08:34:38.436Z,163.04
2023-05-05T08:35:38.243Z,154.24
2023-05-05T08:36:38.261Z,155.76
2023-05-05T08:37:38.278Z,161.66
2023-05-05T08:38:38.305Z,154.77
2023-05-05T08:39:38.321Z,155.59
2023-05-05T08:40:38.320Z,154.61
2023-05-05T08:41:38.366Z,156.33
2023-05-05T08:42:39.423Z,155.98
2023-05-05T08:43:38.376Z,152.29
2023-05-05T08:44:38.399Z,167.32
2023-05-05T08:45:38.407Z,174.21
2023-05-05T08:46:38.515Z,181.71
2023-05-05T08:47:38.545Z,183.80
2023-05-05T08:48:38.466Z,186.13
2023-05-05T08:49:38.583Z,190.02
2023-05-05T08:50:38.490Z,191.82
2023-05-05T08:51:38.473Z,189.35
2023-05-05T08:52:38.481Z,193.97
2023-05-05T08:53:38.487Z,198.49
2023-05-05T08:54:38.942Z,198.45
2023-05-05T08:55:38.489Z,199.96
2023-05-05T08:56:38.500Z,204.73
2023-05-05T08:57:38.472Z,206.91
2023-05-05T08:58:38.471Z,202.16
2023-05-05T08:59:38.551Z,206.67
2023-05-05T09:00:38.550Z,210.55
2023-05-05T09:01:38.523Z,217.32
2023-05-05T09:02:38.533Z,214.68
2023-05-05T09:03:38.529Z,212.35
2023-05-05T09:04:38.915Z,209.45
2023-05-05T09:05:38.569Z,205.16
2023-05-05T09:06:38.512Z,198.35
2023-05-05T09:07:38.539Z,208.96
2023-05-05T09:08:38.500Z,212.41
2023-05-05T09:09:38.480Z,214.45
2023-05-05T09:10:38.480Z,220.72
2023-05-05T09:11:38.454Z,216.66
2023-05-05T09:12:38.505Z,224.09
2023-05-05T09:13:38.473Z,231.16
2023-05-05T09:14:38.975Z,231.00
2023-05-05T09:15:38.504Z,234.70
2023-05-05T09:16:38.556Z,238.01
2023-05-05T09:17:38.546Z,225.64
2023-05-05T09:18:38.551Z,231.03
2023-05-05T09:19:38.509Z,233.36
2023-05-05T09:20:38.559Z,226.20
2023-05-05T09:21:39.187Z,231.03
2023-05-05T09:22:38.558Z,238.44
2023-05-05T09:23:38.571Z,230.62
2023-05-05T09:24:38.566Z,235.20
2023-05-05T09:25:38.567Z,229.48
2023-05-05T09:26:38.562Z,238.72
2023-05-05T09:27:38.565Z,244.70
2023-05-05T09:28:38.574Z,247.59
2023-05-05T09:29:38.627Z,249.60
2023-05-05T09:30:38.608Z,248.46
2023-05-05T09:31:38.620Z,243.27
2023-05-05T09:32:38.610Z,249.05
2023-05-05T09:33:38.584Z,248.68
2023-05-05T09:34:38.941Z,243.95
2023-05-05T09:35:38.596Z,244.01
2023-05-05T09:36:38.568Z,248.95
2023-05-05T09:37:38.775Z,249.90
2023-05-05T09:38:38.575Z,249.94
2023-05-05T09:39:38.931Z,245.04
2023-05-05T09:40:38.581Z,246.10
2023-05-05T09:41:38.589Z,244.39
2023-05-05T09:42:38.594Z,245.45
2023-05-05T09:43:38.564Z,250.00
2023-05-05T09:44:38.950Z,249.59
2023-05-05T09:45:38.577Z,245.40
2023-05-05T09:46:38.686Z,241.46
2023-05-05T09:47:38.652Z,239.17
2023-05-05T09:48:38.570Z,238.35
2023-05-05T09:49:38.946Z,240.77
2023-05-05T09:50:38.571Z,237.78
2023-05-05T09:51:38.558Z,241.53
2023-05-05T09:52:38.584Z,237.11
2023-05-05T09:53:38.633Z,238.95
2023-05-05T09:54:38.573Z,239.08
2023-05-05T09:55:38.598Z,239.95
2023-05-05T09:56:38.618Z,232.42
2023-05-05T09:57:38.623Z,240.55
2023-05-05T09:58:38.664Z,240.99
2023-05-05T09:59:38.625Z,241.66
2023-05-05T10:00:38.695Z,242.80
2023-05-05T10:01:38.714Z,246.10
2023-05-05T10:02:38.743Z,246.90
2023-05-05T10:03:38.662Z,250.00
2023-05-05T10:04:38.643Z,245.01
2023-05-05T10:05:38.635Z,247.42
2023-05-05T10:06:38.624Z,248.15
2023-05-05T10:07:38.631Z,248.01
2023-05-05T10:08:38.618Z,244.62
2023-05-05T10:09:38.631Z,245.14
2023-05-05T10:10:38.718Z,238.02
2023-05-05T10:11:38.669Z,241.37
2023-05-05T10:12:38.768Z,235.24
2023-05-05T10:13:38.659Z,245.99
2023-05-05T10:14:38.939Z,243.78
2023-05-05T10:15:38.638Z,241.34
2023-05-05T10:16:38.718Z,235.41
2023-05-05T10:17:38.719Z,240.90
2023-05-05T10:18:38.796Z,241.98
2023-05-05T10:19:38.950Z,234.37
2023-05-05T10:20:38.733Z,237.52
2023-05-05T10:21:40.213Z,241.83
2023-05-05T10:22:38.634Z,246.79
2023-05-05T10:23:38.628Z,242.35
2023-05-05T10:24:38.642Z,244.07
2023-05-05T10:25:38.604Z,247.99
2023-05-05T10:26:38.612Z,245.21
2023-05-05T10:27:38.581Z,242.85
2023-05-05T10:28:38.607Z,237.60
2023-05-05T10:29:38.991Z,241.42
2023-05-05T10:30:38.611Z,246.56
2023-05-05T10:31:38.595Z,247.56
2023-05-05T10:33:38.695Z,240.31
2023-05-05T10:34:39.063Z,241.24
2023-05-05T10:35:38.592Z,243.54
2023-05-05T10:36:38.711Z,240.79
2023-05-05T10:37:38.583Z,240.41
2023-05-05T10:38:38.497Z,235.67
2023-05-05T10:39:38.983Z,243.16
2023-05-05T10:40:38.507Z,235.66
2023-05-05T10:41:38.605Z,239.65
2023-05-05T10:42:38.534Z,243.97
2023-05-05T10:43:38.495Z,243.22
2023-05-05T10:44:38.994Z,234.58
2023-05-05T10:45:38.610Z,239.03
2023-05-05T10:46:38.626Z,241.59
2023-05-05T10:47:38.475Z,233.16
2023-05-05T10:48:38.481Z,231.93
2023-05-05T10:49:38.469Z,228.58
2023-05-05T10:50:38.471Z,229.29
2023-05-05T10:52:38.416Z,224.52
2023-05-05T10:53:38.433Z,223.90
2023-05-05T10:54:38.631Z,228.07
2023-05-05T10:55:38.436Z,229.20
2023-05-05T10:56:38.386Z,229.85
2023-05-05T10:57:38.640Z,233.66
2023-05-05T10:58:51.308Z,232.99
2023-05-05T10:59:39.470Z,233.39
2023-05-05T11:00:38.402Z,233.72
2023-05-05T11:01:38.398Z,227.77
2023-05-05T11:02:38.387Z,220.31
2023-05-05T11:03:38.411Z,225.29
2023-05-05T11:04:38.343Z,220.21
2023-05-05T11:05:38.373Z,223.62
2023-05-05T11:06:38.313Z,225.10
2023-05-05T11:07:38.342Z,223.59
2023-05-05T11:08:38.300Z,224.55
2023-05-05T11:09:38.311Z,232.66
2023-05-05T11:10:38.317Z,233.27
2023-05-05T11:11:38.311Z,236.91
2023-05-05T11:12:38.963Z,233.55
2023-05-05T11:13:38.417Z,233.84
2023-05-05T11:14:38.271Z,231.63
2023-05-05T11:15:38.293Z,233.45
2023-05-05T11:16:38.315Z,228.60
2023-05-05T11:17:38.278Z,227.57
2023-05-05T11:18:38.287Z,227.74
2023-05-05T11:19:38.500Z,219.59
2023-05-05T11:20:38.234Z,228.42
2023-05-05T11:21:38.222Z,231.63
2023-05-05T11:22:38.221Z,231.34
2023-05-05T11:23:38.217Z,235.69
2023-05-05T11:24:38.555Z,233.60
2023-05-05T11:25:38.375Z,235.36
2023-05-05T11:26:38.228Z,230.24
2023-05-05T11:27:38.204Z,232.93
2023-05-05T11:28:38.180Z,231.22
2023-05-05T11:29:38.258Z,227.59
2023-05-05T11:30:38.503Z,229.14
2023-05-05T11:31:38.297Z,230.82
2023-05-05T11:32:38.193Z,226.05
2023-05-05T11:33:38.188Z,219.39
2023-05-05T11:34:38.134Z,224.82
2023-05-05T11:35:38.494Z,216.80
2023-05-05T11:36:38.151Z,212.96
2023-05-05T11:37:38.141Z,211.91
2023-05-05T11:38:38.137Z,206.82
2023-05-05T11:39:38.140Z,202.59
2023-05-05T11:40:38.542Z,198.06
2023-05-05T11:41:38.170Z,193.58
2023-05-05T11:42:38.185Z,197.17
2023-05-05T11:43:38.175Z,187.38
2023-05-05T11:44:38.180Z,187.13
2023-05-05T11:45:38.629Z,181.20
2023-05-05T11:46:38.280Z,188.18
2023-05-05T11:47:38.260Z,188.42
2023-05-05T11:48:38.216Z,187.96
2023-05-05T11:49:38.246Z,188.60
2023-05-05T11:50:38.491Z,188.34
2023-05-05T11:51:38.273Z,186.19
2023-05-05T11:52:38.274Z,187.86
2023-05-05T11:53:38.325Z,184.97
2023-05-05T11:54:38.348Z,185.15
2023-05-05T11:55:38.371Z,183.63
2023-05-05T11:56:38.696Z,178.76
2023-05-05T11:57:38.408Z,177.60
2023-05-05T11:58:38.416Z,177.44
2023-05-05T11:59:38.419Z,176.56
2023-05-05T12:00:38.493Z,176.10
2023-05-05T12:01:38.503Z,175.37
2023-05-05T12:02:38.531Z,174.53
2023-05-05T12:03:38.738Z,172.45
2023-05-05T12:04:38.602Z,172.74
2023-05-05T12:05:38.983Z,174.59
2023-05-05T12:06:38.575Z,175.53
2023-05-05T12:07:38.569Z,172.95
2023-05-05T12:08:38.595Z,171.57
2023-05-05T12:09:38.603Z,172.29
2023-05-05T12:10:38.991Z,173.82
2023-05-05T12:11:38.651Z,171.79
2023-05-05T12:12:38.765Z,168.96
2023-05-05T12:13:38.701Z,170.97
2023-05-05T12:14:38.740Z,172.63
2023-05-05T12:15:39.023Z,168.72
2023-05-05T12:16:38.801Z,165.57
2023-05-05T12:17:38.948Z,163.42
2023-05-05T12:18:38.862Z,164.55
2023-05-05T12:19:38.850Z,163.56
2023-05-05T12:20:39.012Z,163.70
2023-05-05T12:21:38.967Z,164.54
2023-05-05T12:22:38.987Z,162.85
2023-05-05T12:23:39.017Z,161.40
2023-05-05T12:24:39.009Z,163.04
2023-05-05T12:25:39.515Z,161.24
2023-05-05T12:26:39.107Z,161.14
2023-05-05T12:27:39.231Z,158.95
2023-05-05T12:28:39.150Z,156.92
2023-05-05T12:29:39.185Z,158.01
2023-05-05T12:30:39.563Z,157.29
2023-05-05T12:31:39.299Z,158.33
2023-05-05T12:32:39.299Z,157.14
2023-05-05T12:33:39.356Z,158.53
2023-05-05T12:34:39.340Z,155.61
2023-05-05T12:35:39.524Z,157.46
2023-05-05T12:36:39.363Z,157.74
2023-05-05T12:37:39.403Z,156.30
2023-05-05T12:38:39.437Z,156.70
2023-05-05T12:39:39.409Z,156.47
2023-05-05T12:40:39.507Z,155.36
2023-05-05T12:41:39.532Z,154.93
2023-05-05T12:42:39.554Z,155.39
2023-05-05T12:43:39.561Z,155.88
2023-05-05T12:44:39.605Z,154.86